Time;durP1;ratioP1;P1;durP2;ratioP2;P2;SDS_P1;SDS_P2;PMS_P1;PMS_P2;Temp;Humidity;BMP_temperature;BMP_pressure;BME280_temperature;BME280_humidity;BME280_pressure;Samples;Min_cycle;Max_cycle;Signal;HPM_P1;HPM_P2
2021/07/23 00:00:28;;;;;;;14.80;9.88;;;19.00;92.90;;;;;;5012577;28;20033;-81
2021/07/23 00:02:53;;;;;;;16.75;9.63;;;18.90;92.70;;;;;;5003648;28;20030;-81
2021/07/23 00:05:19;;;;;;;13.27;9.60;;;18.90;92.50;;;;;;4990725;28;20100;-81
2021/07/23 00:07:45;;;;;;;14.77;9.63;;;18.90;92.40;;;;;;4981233;28;20033;-81
2021/07/23 00:10:10;;;;;;;16.35;10.30;;;18.90;92.80;;;;;;5010546;28;20295;-81
2021/07/23 00:12:36;;;;;;;11.60;8.98;;;18.80;92.80;;;;;;4998166;28;20030;-81
2021/07/23 00:15:02;;;;;;;16.20;10.18;;;18.80;93.00;;;;;;5000356;28;20049;-82
2021/07/23 00:17:27;;;;;;;14.25;10.13;;;18.80;93.10;;;;;;4988824;28;20044;-82
2021/07/23 00:19:53;;;;;;;17.50;9.95;;;18.80;93.20;;;;;;4977525;28;20018;-81
2021/07/23 00:22:18;;;;;;;12.93;9.63;;;18.70;93.20;;;;;;4996745;28;20407;-81
2021/07/23 00:24:44;;;;;;;15.95;10.57;;;18.70;93.30;;;;;;4962811;28;20505;-81
2021/07/23 00:27:09;;;;;;;13.77;8.90;;;18.70;93.30;;;;;;4988989;28;20033;-82
2021/07/23 00:29:35;;;;;;;13.77;9.73;;;18.70;93.20;;;;;;4992668;28;20030;-81
2021/07/23 00:32:00;;;;;;;18.40;10.02;;;18.60;92.80;;;;;;4980207;28;20117;-81
2021/07/23 00:34:26;;;;;;;13.60;10.05;;;18.60;93.20;;;;;;5014600;28;20566;-81
2021/07/23 00:36:51;;;;;;;14.32;9.93;;;18.60;93.20;;;;;;4957475;28;20087;-81
2021/07/23 00:39:17;;;;;;;19.48;10.13;;;18.60;93.10;;;;;;5003639;28;20029;-82
2021/07/23 00:41:42;;;;;;;27.42;9.93;;;18.60;93.10;;;;;;4985675;28;20022;-81
2021/07/23 00:44:08;;;;;;;15.50;10.27;;;18.50;93.10;;;;;;4995693;28;20072;-81
2021/07/23 00:46:33;;;;;;;14.70;10.32;;;18.50;93.50;;;;;;4994857;28;20865;-81
2021/07/23 00:48:59;;;;;;;12.60;9.27;;;18.50;93.50;;;;;;4996702;28;20381;-81
2021/07/23 00:51:25;;;;;;;16.17;10.20;;;18.40;93.00;;;;;;4976028;28;20034;-81
2021/07/23 00:53:50;;;;;;;15.95;9.75;;;18.40;93.80;;;;;;4992237;28;20096;-81
2021/07/23 00:56:16;;;;;;;14.45;10.10;;;18.40;93.80;;;;;;4975856;28;20443;-81
2021/07/23 00:58:41;;;;;;;11.77;9.60;;;18.40;93.90;;;;;;4996752;28;20469;-81
2021/07/23 01:01:07;;;;;;;15.68;9.15;;;18.40;93.70;;;;;;5004303;28;20031;-81
2021/07/23 01:03:32;;;;;;;14.25;9.63;;;18.40;93.70;;;;;;4994841;28;20029;-81
2021/07/23 01:05:58;;;;;;;16.45;9.32;;;18.40;93.80;;;;;;5002815;28;20489;-81
2021/07/23 01:08:24;;;;;;;14.40;10.23;;;18.30;93.70;;;;;;4974816;28;20042;-81
2021/07/23 01:10:49;;;;;;;13.68;9.80;;;18.30;93.80;;;;;;4991876;28;20082;-81
2021/07/23 01:13:15;;;;;;;16.58;9.88;;;18.30;93.50;;;;;;5007195;28;20040;-81
2021/07/23 01:15:40;;;;;;;16.23;10.23;;;18.30;93.60;;;;;;4993467;28;20036;-81
2021/07/23 01:28:22;;;;;;;17.73;9.43;;;18.20;93.60;;;;;;5032175;28;20046;-83
2021/07/23 01:30:48;;;;;;;13.55;9.38;;;18.10;93.70;;;;;;4981708;28;20034;-84
2021/07/23 01:33:13;;;;;;;12.55;8.93;;;18.10;94.10;;;;;;4992112;28;20030;-84
2021/07/23 01:35:39;;;;;;;15.05;10.18;;;18.10;94.00;;;;;;4976537;28;20026;-84
2021/07/23 01:38:04;;;;;;;19.00;10.00;;;18.10;94.30;;;;;;4975142;28;20095;-85
2021/07/23 01:40:30;;;;;;;14.50;10.05;;;18.10;94.00;;;;;;4959009;28;20385;-84
2021/07/23 01:42:55;;;;;;;13.48;9.82;;;18.10;94.20;;;;;;4972025;28;20027;-84
2021/07/23 01:45:21;;;;;;;14.63;9.73;;;18.10;94.10;;;;;;4972003;28;20038;-84
2021/07/23 01:47:47;;;;;;;10.52;8.80;;;18.10;93.70;;;;;;4988114;28;20048;-84
2021/07/23 01:50:12;;;;;;;13.32;8.52;;;18.10;93.60;;;;;;5010375;28;20063;-85
2021/07/23 01:52:38;;;;;;;16.15;9.23;;;18.10;94.30;;;;;;5013210;28;20037;-84
2021/07/23 01:55:04;;;;;;;14.75;9.73;;;18.00;93.90;;;;;;4966781;28;20710;-84
2021/07/23 01:57:29;;;;;;;11.75;8.73;;;18.00;93.80;;;;;;4989576;28;20038;-84
2021/07/23 01:59:55;;;;;;;13.93;9.63;;;18.00;94.00;;;;;;5005347;28;20485;-84
2021/07/23 02:02:20;;;;;;;9.90;8.65;;;18.00;94.00;;;;;;4992620;28;20191;-85
2021/07/23 02:04:46;;;;;;;12.77;8.90;;;18.00;94.10;;;;;;4974558;28;20044;-84
2021/07/23 02:07:11;;;;;;;17.45;10.07;;;18.00;94.10;;;;;;5008955;28;20030;-84
2021/07/23 02:09:37;;;;;;;13.73;9.68;;;17.90;94.10;;;;;;4992893;28;20053;-83
2021/07/23 02:12:03;;;;;;;11.43;9.10;;;17.90;94.00;;;;;;4993573;28;20031;-84
2021/07/23 02:14:29;;;;;;;16.10;9.18;;;17.90;94.10;;;;;;5010702;28;20037;-84
2021/07/23 02:16:56;;;;;;;13.52;8.93;;;17.80;94.00;;;;;;5013172;28;20022;-84
2021/07/23 02:19:22;;;;;;;13.02;9.23;;;17.80;94.30;;;;;;4999645;28;20034;-84
2021/07/23 02:21:47;;;;;;;12.75;9.02;;;17.80;94.30;;;;;;4976526;28;20072;-84
2021/07/23 02:24:13;;;;;;;11.90;9.68;;;17.80;94.50;;;;;;4993047;28;20492;-84
2021/07/23 02:26:38;;;;;;;11.18;8.07;;;17.80;94.70;;;;;;4971527;28;20477;-84
2021/07/23 02:29:04;;;;;;;12.60;8.98;;;17.70;94.40;;;;;;4979097;28;20061;-84
2021/07/23 02:31:29;;;;;;;10.82;9.02;;;17.70;94.50;;;;;;4989502;28;20521;-84
2021/07/23 02:33:55;;;;;;;17.20;9.05;;;17.70;94.60;;;;;;4973276;28;20058;-84
2021/07/23 02:36:20;;;;;;;16.17;10.02;;;17.60;94.60;;;;;;4977328;28;20168;-84
2021/07/23 02:38:46;;;;;;;12.98;9.02;;;17.60;94.80;;;;;;4971707;28;20514;-84
2021/07/23 02:41:11;;;;;;;12.82;9.45;;;17.60;94.50;;;;;;5003857;28;20690;-84
2021/07/23 02:43:37;;;;;;;11.93;9.30;;;17.50;94.60;;;;;;4961142;28;20031;-83
2021/07/23 02:46:02;;;;;;;20.70;9.90;;;17.50;94.60;;;;;;5011084;28;20427;-82
2021/07/23 02:48:28;;;;;;;13.48;10.15;;;17.50;95.10;;;;;;5004120;28;20038;-83
2021/07/23 02:50:54;;;;;;;17.80;10.18;;;17.40;94.60;;;;;;4960163;28;20021;-83
2021/07/23 02:53:19;;;;;;;16.27;9.85;;;17.40;94.70;;;;;;4992810;28;20500;-83
2021/07/23 02:55:45;;;;;;;16.83;10.95;;;17.40;94.50;;;;;;4989760;28;20041;-83
2021/07/23 02:58:11;;;;;;;13.15;9.57;;;17.40;95.10;;;;;;4985207;28;20576;-83
2021/07/23 03:00:36;;;;;;;18.27;9.60;;;17.30;94.90;;;;;;4973249;28;20026;-81
2021/07/23 03:03:03;;;;;;;14.25;10.18;;;17.30;94.80;;;;;;4989664;28;20264;-83
2021/07/23 03:05:29;;;;;;;14.88;9.70;;;17.20;94.80;;;;;;4983081;28;20095;-83
2021/07/23 03:07:55;;;;;;;13.52;10.50;;;17.20;94.90;;;;;;4987115;28;20042;-83
2021/07/23 03:10:20;;;;;;;13.75;10.43;;;17.20;95.30;;;;;;4986265;28;20417;-83
2021/07/23 03:12:46;;;;;;;13.80;10.82;;;17.10;95.20;;;;;;5006533;28;20044;-82
2021/07/23 03:15:11;;;;;;;17.95;9.98;;;17.10;95.20;;;;;;4968353;28;20030;-83
2021/07/23 03:17:37;;;;;;;16.52;10.27;;;17.10;95.00;;;;;;4984604;28;20040;-83
2021/07/23 03:20:03;;;;;;;12.35;9.75;;;17.10;95.30;;;;;;4991984;28;20052;-82
2021/07/23 03:22:29;;;;;;;12.57;10.13;;;17.10;95.50;;;;;;4990996;28;20554;-82
2021/07/23 03:24:55;;;;;;;13.45;10.13;;;17.10;95.30;;;;;;4970753;28;20033;-83
2021/07/23 03:27:21;;;;;;;16.20;11.00;;;17.00;95.60;;;;;;4974043;28;20371;-83
2021/07/23 03:29:46;;;;;;;15.60;10.57;;;17.00;95.50;;;;;;4998577;28;20033;-83
2021/07/23 03:32:12;;;;;;;17.42;10.38;;;17.00;95.20;;;;;;4955724;28;20034;-83
2021/07/23 03:34:37;;;;;;;13.95;9.90;;;16.90;95.50;;;;;;4992341;28;20104;-83
2021/07/23 03:37:03;;;;;;;16.52;10.63;;;16.90;95.40;;;;;;4981671;28;20416;-82
2021/07/23 03:39:28;;;;;;;18.13;10.50;;;16.90;95.50;;;;;;4993258;28;20396;-82
2021/07/23 03:41:54;;;;;;;17.00;10.55;;;16.90;95.50;;;;;;4975945;28;20057;-83
2021/07/23 03:44:20;;;;;;;17.30;10.50;;;16.80;95.50;;;;;;4980521;28;20489;-83
2021/07/23 03:46:45;;;;;;;17.25;11.05;;;16.80;95.60;;;;;;4966940;28;20743;-83
2021/07/23 03:49:11;;;;;;;13.50;10.80;;;16.80;96.00;;;;;;4971808;28;20029;-82
2021/07/23 03:51:36;;;;;;;16.35;10.27;;;16.80;95.70;;;;;;5007555;28;20168;-83
2021/07/23 03:54:02;;;;;;;13.82;10.50;;;16.80;95.80;;;;;;4982950;28;20453;-83
2021/07/23 03:56:27;;;;;;;14.60;10.73;;;16.90;95.90;;;;;;5007087;28;20061;-83
2021/07/23 03:58:53;;;;;;;16.00;10.75;;;16.80;95.80;;;;;;4956392;28;20026;-82
2021/07/23 04:01:18;;;;;;;17.13;10.93;;;16.70;95.60;;;;;;4987687;28;20050;-82
2021/07/23 04:03:44;;;;;;;18.83;11.23;;;16.70;95.50;;;;;;4988143;28;20037;-83
2021/07/23 04:06:09;;;;;;;16.10;10.73;;;16.70;96.10;;;;;;5003588;28;20635;-82
2021/07/23 04:08:35;;;;;;;19.48;10.52;;;16.70;96.10;;;;;;4958565;28;20941;-82
2021/07/23 04:11:00;;;;;;;18.33;11.85;;;16.70;96.00;;;;;;4959477;28;20022;-82
2021/07/23 04:13:26;;;;;;;21.58;10.90;;;16.70;96.40;;;;;;4992662;28;20030;-82
2021/07/23 04:15:52;;;;;;;15.18;10.88;;;16.70;95.90;;;;;;4992049;28;20148;-83
2021/07/23 04:18:17;;;;;;;17.27;11.15;;;16.70;96.40;;;;;;4964225;28;20127;-82
2021/07/23 04:20:43;;;;;;;20.23;11.45;;;16.70;96.30;;;;;;4982704;28;20486;-82
2021/07/23 04:23:08;;;;;;;20.70;11.30;;;16.70;95.90;;;;;;4997395;28;20029;-83
2021/07/23 04:25:34;;;;;;;18.05;11.18;;;16.70;96.20;;;;;;4962239;28;20045;-83
2021/07/23 04:27:59;;;;;;;16.60;11.75;;;16.60;96.30;;;;;;4988920;28;20033;-81
2021/07/23 04:30:25;;;;;;;17.75;12.00;;;16.60;96.20;;;;;;4964290;28;20035;-83
2021/07/23 04:32:51;;;;;;;18.58;11.82;;;16.60;96.20;;;;;;4998982;28;20033;-83
2021/07/23 04:35:16;;;;;;;15.25;10.98;;;16.60;96.30;;;;;;4982668;28;20038;-83
2021/07/23 04:37:42;;;;;;;19.20;12.00;;;16.60;96.20;;;;;;4951189;28;20065;-82
2021/07/23 04:40:08;;;;;;;22.30;11.93;;;16.60;96.40;;;;;;4983809;28;20037;-83
2021/07/23 04:42:33;;;;;;;13.75;11.27;;;16.60;96.30;;;;;;4959963;28;20066;-83
2021/07/23 04:44:59;;;;;;;20.52;12.00;;;16.50;96.50;;;;;;4998548;28;20064;-82
2021/07/23 04:47:24;;;;;;;19.45;11.85;;;16.50;96.50;;;;;;4971368;28;20045;-83
2021/07/23 04:49:50;;;;;;;19.13;12.88;;;16.60;96.50;;;;;;4997736;28;20031;-83
2021/07/23 04:52:16;;;;;;;18.67;12.65;;;16.50;96.40;;;;;;4946728;28;20069;-82
2021/07/23 04:54:41;;;;;;;19.85;12.20;;;16.60;96.70;;;;;;4987162;28;20492;-83
2021/07/23 04:57:12;;;;;;;19.75;12.52;;;16.60;96.50;;;;;;4949311;28;20465;-81
2021/07/23 04:59:38;;;;;;;27.67;12.63;;;16.60;96.90;;;;;;4943529;28;20059;-82
2021/07/23 05:02:03;;;;;;;19.48;12.52;;;16.60;96.50;;;;;;4972032;28;20041;-83
2021/07/23 05:04:29;;;;;;;20.02;13.13;;;16.60;96.40;;;;;;4957791;28;20030;-82
2021/07/23 05:06:54;;;;;;;19.75;12.23;;;16.70;96.80;;;;;;4945940;28;20394;-83
2021/07/23 05:09:20;;;;;;;21.27;12.10;;;16.70;96.50;;;;;;5005477;28;20029;-83
2021/07/23 05:11:45;;;;;;;18.02;11.60;;;16.70;96.70;;;;;;4972659;28;20034;-82
2021/07/23 05:14:11;;;;;;;17.80;12.13;;;16.70;96.70;;;;;;4979660;28;20061;-83
2021/07/23 05:16:36;;;;;;;21.98;12.32;;;16.70;96.40;;;;;;4975437;28;20133;-83
2021/07/23 05:22:24;;;;;;;17.67;12.73;;;16.80;96.80;;;;;;5013575;28;20045;-81
2021/07/23 05:24:50;;;;;;;21.17;11.65;;;16.80;96.70;;;;;;4991745;28;20025;-83
2021/07/23 05:27:16;;;;;;;18.42;12.50;;;16.90;96.60;;;;;;4995178;28;20076;-82
2021/07/23 05:29:42;;;;;;;17.13;12.50;;;16.90;96.50;;;;;;4956322;28;20080;-83
2021/07/23 05:32:19;;;;;;;16.83;11.30;;;16.90;96.60;;;;;;4963264;28;20038;-83
2021/07/23 05:45:31;;;;;;;21.25;12.45;;;17.10;96.00;;;;;;4989510;28;20046;-85
2021/07/23 05:52:16;;;;;;;;;;;17.20;96.00;;;;;;4942924;28;20038;-85
2021/07/23 05:55:55;;;;;;;16.40;11.10;;;17.20;95.70;;;;;;4943940;28;19910;-85
2021/07/23 05:58:21;;;;;;;16.02;10.65;;;17.20;95.60;;;;;;4909665;29;20044;-83
2021/07/23 06:00:46;;;;;;;13.88;10.38;;;17.30;95.50;;;;;;4945760;28;20082;-83
2021/07/23 06:03:12;;;;;;;14.15;10.93;;;17.30;95.40;;;;;;4988421;28;20129;-83
2021/07/23 06:05:37;;;;;;;14.73;10.80;;;17.30;95.60;;;;;;4973000;28;20042;-84
2021/07/23 06:08:03;;;;;;;16.98;11.23;;;17.30;95.40;;;;;;4956588;28;20085;-83
2021/07/23 06:10:28;;;;;;;16.30;11.23;;;17.40;95.40;;;;;;4973150;28;20364;-83
2021/07/23 06:12:54;;;;;;;16.08;10.63;;;17.40;95.50;;;;;;4989375;28;20112;-85
2021/07/23 06:15:19;;;;;;;20.15;11.45;;;17.40;95.20;;;;;;4957773;28;20030;-83
2021/07/23 06:17:45;;;;;;;16.77;10.82;;;17.50;95.20;;;;;;5004359;28;20029;-83
2021/07/23 06:20:12;;;;;;;12.30;9.80;;;17.50;95.20;;;;;;4958586;28;20053;-81
2021/07/23 06:22:38;;;;;;;17.27;10.93;;;17.50;95.10;;;;;;4974594;28;20576;-82
2021/07/23 06:25:03;;;;;;;18.75;10.43;;;17.60;95.20;;;;;;4962305;28;20120;-83
2021/07/23 06:27:29;;;;;;;15.10;10.40;;;17.60;95.20;;;;;;4960933;28;20026;-83
2021/07/23 06:33:30;;;;;;;15.65;10.02;;;17.70;95.10;;;;;;5022985;28;20135;-84
2021/07/23 06:39:19;;;;;;;15.32;10.50;;;17.70;95.30;;;;;;5012187;28;20025;-82
2021/07/23 06:48:54;;;;;;;15.02;9.50;;;17.90;95.10;;;;;;5015021;28;20048;-85
2021/07/23 06:51:20;;;;;;;17.75;9.75;;;17.90;95.10;;;;;;4985516;28;20030;-83
2021/07/23 06:53:45;;;;;;;17.17;10.20;;;18.00;95.30;;;;;;4986620;28;20489;-81
2021/07/23 07:10:09;;;;;;;11.63;9.13;;;18.10;94.60;;;;;;5029235;28;20037;-87
2021/07/23 07:12:35;;;;;;;16.45;8.98;;;18.20;94.70;;;;;;4999233;28;20046;-82
2021/07/23 07:15:00;;;;;;;14.00;8.43;;;18.20;94.90;;;;;;4988131;28;20845;-83
2021/07/23 07:17:29;;;;;;;14.05;8.77;;;18.20;94.80;;;;;;4994927;28;20035;-83
2021/07/23 07:19:54;;;;;;;16.13;8.48;;;18.30;94.70;;;;;;4995658;28;20026;-83
2021/07/23 07:22:23;;;;;;;18.33;8.68;;;18.30;94.50;;;;;;4995086;28;20034;-83
2021/07/23 07:24:48;;;;;;;15.32;8.52;;;18.40;94.30;;;;;;4995598;28;20022;-83
2021/07/23 07:27:14;;;;;;;14.07;8.88;;;18.40;94.20;;;;;;4978790;28;20104;-83
2021/07/23 07:29:39;;;;;;;17.15;8.90;;;18.50;94.20;;;;;;4963812;28;20359;-82
2021/07/23 07:32:07;;;;;;;21.27;9.23;;;18.50;94.00;;;;;;4992903;28;20041;-82
2021/07/23 07:34:34;;;;;;;16.63;8.63;;;18.50;93.80;;;;;;4958914;28;20516;-83
2021/07/23 07:37:00;;;;;;;15.80;9.15;;;18.60;93.80;;;;;;4992701;28;20022;-83
2021/07/23 07:39:26;;;;;;;12.05;8.23;;;18.60;93.90;;;;;;4997080;28;20396;-84
2021/07/23 07:41:52;;;;;;;12.48;7.50;;;18.60;93.70;;;;;;4987445;28;20029;-83
2021/07/23 08:32:31;;;;;;;15.57;7.03;;;19.40;91.50;;;;;;5031737;28;20072;-87
2021/07/23 08:39:08;;;;;;;15.30;6.93;;;19.40;91.50;;;;;;4935427;29;20072;-83
2021/07/23 08:41:36;;;;;;;10.82;6.85;;;19.50;91.40;;;;;;4897690;29;20040;-84
2021/07/23 08:44:02;;;;;;;12.48;7.28;;;19.50;91.20;;;;;;4927740;29;20070;-81
2021/07/23 08:46:28;;;;;;;17.38;8.07;;;19.50;91.30;;;;;;4954414;28;20062;-82
2021/07/23 08:48:54;;;;;;;17.55;7.85;;;19.60;91.00;;;;;;4939456;28;20457;-82
2021/07/23 08:51:23;;;;;;;11.55;6.95;;;19.60;90.60;;;;;;5032361;23;20128;-87
2021/07/23 08:53:57;;;;;;;12.77;6.97;;;19.60;90.60;;;;;;4978550;28;20032;-88
2021/07/23 08:56:25;;;;;;;17.27;8.32;;;19.70;90.50;;;;;;4990868;28;20092;-87
2021/07/23 08:59:09;;;;;;;12.77;7.30;;;19.70;90.20;;;;;;4966450;28;20141;-87
2021/07/23 09:02:16;;;;;;;;;;;;;;;;;;;;;
2021/07/23 09:04:47;;;;;;;11.57;6.60;;;19.80;90.30;;;;;;4993926;28;20428;-86
2021/07/23 09:07:20;;;;;;;11.55;7.25;;;19.90;90.30;;;;;;4990717;28;20026;-88
2021/07/23 09:10:06;;;;;;;9.27;6.70;;;19.90;90.10;;;;;;5024363;28;20391;-87
2021/07/23 09:13:10;;;;;;;10.68;6.18;;;19.90;90.50;;;;;;4995559;28;20427;-88
2021/07/23 09:15:58;;;;;;;11.65;7.15;;;19.90;90.50;;;;;;4996363;28;20025;-88
2021/07/23 09:21:57;;;;;;;15.27;7.80;;;20.00;90.70;;;;;;5182493;23;20188;-88
2021/07/23 09:24:23;;;;;;;10.32;6.35;;;20.10;89.90;;;;;;5006860;28;20034;-90
2021/07/23 09:27:52;;;;;;;14.07;7.15;;;20.00;90.00;;;;;;4974590;28;20037;-91
2021/07/23 09:30:20;;;;;;;7.88;6.25;;;20.10;89.50;;;;;;4923947;29;20139;-86
2021/07/23 09:32:46;;;;;;;12.32;6.60;;;20.10;89.50;;;;;;4954768;28;20047;-84
2021/07/23 09:35:13;;;;;;;11.38;7.25;;;20.20;89.50;;;;;;4937560;28;20044;-85
2021/07/23 09:37:55;;;;;;;18.02;7.95;;;20.20;88.70;;;;;;4941647;28;20112;-84
2021/07/23 09:40:21;;;;;;;11.48;7.25;;;20.30;88.50;;;;;;4956949;28;20515;-85
2021/07/23 09:42:56;;;;;;;9.43;7.10;;;20.30;88.90;;;;;;4956901;28;20343;-85
2021/07/23 09:45:29;;;;;;;14.70;7.30;;;20.30;87.90;;;;;;4983013;28;20032;-84
2021/07/23 09:48:13;;;;;;;11.82;6.85;;;20.30;89.70;;;;;;4978378;28;20037;-85
2021/07/23 09:50:44;;;;;;;12.18;8.05;;;20.40;90.10;;;;;;4976955;28;20536;-85
2021/07/23 09:53:15;;;;;;;14.30;8.07;;;20.40;89.20;;;;;;4969982;28;20037;-85
2021/07/23 09:55:44;;;;;;;;;;;20.40;88.90;;;;;;4954639;28;20328;-85
2021/07/23 09:58:09;;;;;;;10.68;7.45;;;20.40;89.10;;;;;;4968343;28;20411;-84
2021/07/23 10:00:41;;;;;;;12.48;7.22;;;20.50;89.10;;;;;;4972224;28;20256;-85
2021/07/23 10:03:07;;;;;;;14.05;7.57;;;20.50;89.00;;;;;;4948980;28;20030;-85
2021/07/23 10:05:37;;;;;;;14.32;7.28;;;20.50;89.40;;;;;;4957268;28;20041;-85
2021/07/23 10:08:07;;;;;;;9.82;6.50;;;20.60;87.90;;;;;;4956029;28;20508;-85
2021/07/23 10:10:33;;;;;;;8.80;6.80;;;20.50;88.90;;;;;;4950786;28;20105;-84
2021/07/23 10:12:58;;;;;;;11.70;7.93;;;20.60;88.90;;;;;;4959638;28;20485;-84
2021/07/23 10:15:24;;;;;;;10.85;7.18;;;20.60;87.00;;;;;;4967654;28;20048;-84
2021/07/23 10:17:49;;;;;;;13.57;7.88;;;20.60;87.10;;;;;;4954433;28;20412;-85
2021/07/23 10:20:18;;;;;;;14.45;8.35;;;20.60;88.20;;;;;;4955013;28;20405;-84
2021/07/23 10:22:44;;;;;;;11.93;7.90;;;20.70;87.80;;;;;;4954081;28;20549;-84
2021/07/23 10:25:09;;;;;;;12.02;7.88;;;20.70;87.50;;;;;;4972078;28;20057;-85
2021/07/23 10:27:35;;;;;;;14.45;8.05;;;20.70;86.90;;;;;;4967720;28;20048;-85
2021/07/23 10:30:00;;;;;;;12.55;8.27;;;20.70;87.90;;;;;;4940870;28;20041;-85
2021/07/23 10:32:30;;;;;;;18.38;10.23;;;20.80;87.40;;;;;;4968765;28;20487;-87
2021/07/23 10:34:56;;;;;;;15.85;8.75;;;20.80;85.60;;;;;;4968672;28;20041;-86
2021/07/23 10:37:32;;;;;;;15.15;9.63;;;20.80;84.90;;;;;;4965128;28;20083;-85
2021/07/23 10:40:12;;;;;;;19.73;9.88;;;20.80;85.00;;;;;;4983293;28;20113;-84
2021/07/23 10:42:38;;;;;;;10.63;7.65;;;20.80;84.50;;;;;;4991705;28;20026;-85
2021/07/23 10:45:25;;;;;;;12.30;7.55;;;20.90;86.00;;;;;;4954665;28;20484;-85
2021/07/23 10:47:50;;;;;;;12.80;8.38;;;20.90;87.80;;;;;;4977240;28;20042;-85
2021/07/23 10:50:25;;;;;;;18.60;8.75;;;20.90;85.90;;;;;;4961997;28;20052;-85
2021/07/23 10:52:51;;;;;;;9.10;7.35;;;20.90;85.80;;;;;;4992361;28;20236;-85
2021/07/23 10:55:21;;;;;;;12.90;7.13;;;21.00;87.10;;;;;;4990957;28;20274;-86
2021/07/23 10:58:07;;;;;;;16.07;8.37;;;21.00;86.70;;;;;;4956823;28;20041;-87
2021/07/23 11:00:54;;;;;;;12.40;8.10;;;21.00;85.80;;;;;;4991250;28;20030;-85
2021/07/23 11:03:36;;;;;;;10.27;7.43;;;21.00;85.60;;;;;;4955086;28;20027;-84
2021/07/23 11:06:18;;;;;;;13.40;7.57;;;21.00;86.10;;;;;;4991159;28;20029;-85
2021/07/23 11:08:45;;;;;;;11.65;7.05;;;21.10;86.00;;;;;;4975061;28;20077;-84
2021/07/23 11:11:10;;;;;;;13.02;8.10;;;21.10;87.90;;;;;;4959809;28;20041;-84
2021/07/23 11:13:36;;;;;;;13.05;7.80;;;21.10;87.00;;;;;;4962789;28;20030;-85
2021/07/23 11:16:14;;;;;;;10.95;7.55;;;21.10;85.50;;;;;;4940754;28;20048;-85
2021/07/23 11:19:02;;;;;;;9.50;7.35;;;21.20;83.70;;;;;;4971826;28;20033;-85
2021/07/23 11:21:35;;;;;;;11.43;6.65;;;21.20;83.20;;;;;;4961543;28;20036;-84
2021/07/23 11:24:14;;;;;;;11.60;7.40;;;21.20;85.00;;;;;;4945837;28;20030;-84
2021/07/23 11:27:05;;;;;;;15.07;7.63;;;21.20;86.10;;;;;;4989692;28;20077;-85
2021/07/23 11:29:38;;;;;;;13.50;7.07;;;21.20;83.90;;;;;;4977650;28;20046;-85
2021/07/23 11:32:09;;;;;;;12.00;7.32;;;21.30;85.30;;;;;;4977310;28;20038;-85
2021/07/23 11:34:41;;;;;;;12.60;8.32;;;21.30;85.70;;;;;;4981681;28;20034;-84
2021/07/23 11:37:42;;;;;;;11.02;7.30;;;21.30;83.20;;;;;;4958057;28;21715;-84
2021/07/23 11:40:11;;;;;;;13.98;6.90;;;21.30;84.30;;;;;;4975403;28;20397;-85
2021/07/23 11:42:38;;;;;;;15.60;7.13;;;21.40;84.60;;;;;;4977009;28;20033;-85
2021/07/23 11:45:09;;;;;;;11.60;7.32;;;21.40;82.80;;;;;;4992188;28;20401;-86
2021/07/23 11:47:36;;;;;;;9.77;6.93;;;21.40;81.80;;;;;;4961836;28;20030;-88
2021/07/23 11:50:10;;;;;;;13.90;8.35;;;21.50;82.10;;;;;;4960634;28;20030;-86
2021/07/23 11:52:35;;;;;;;12.57;7.82;;;21.50;82.10;;;;;;4953961;28;20134;-85
2021/07/23 11:55:08;;;;;;;13.68;9.43;;;21.50;80.90;;;;;;4971649;28;20160;-86
2021/07/23 11:57:41;;;;;;;8.75;6.55;;;21.50;81.20;;;;;;4960171;28;20022;-86
2021/07/23 12:00:23;;;;;;;9.95;7.45;;;21.60;83.40;;;;;;4991667;28;20166;-87
2021/07/23 12:02:52;;;;;;;10.20;6.75;;;21.70;83.40;;;;;;4960251;28;20026;-85
2021/07/23 12:05:18;;;;;;;9.20;7.05;;;21.70;81.70;;;;;;4976810;28;20026;-85
2021/07/23 12:07:45;;;;;;;10.40;7.65;;;21.70;81.30;;;;;;4954315;28;20037;-86
2021/07/23 12:10:14;;;;;;;10.98;7.15;;;21.70;81.30;;;;;;4953769;28;20041;-84
2021/07/23 12:12:40;;;;;;;10.32;6.80;;;21.80;81.40;;;;;;4973070;28;20057;-84
2021/07/23 12:15:10;;;;;;;9.25;6.00;;;21.70;81.40;;;;;;4971457;28;20065;-85
2021/07/23 12:17:43;;;;;;;11.00;6.43;;;21.80;83.30;;;;;;4960230;28;20087;-84
2021/07/23 12:20:10;;;;;;;13.50;7.32;;;21.80;82.90;;;;;;4946888;28;20026;-86
2021/07/23 12:22:35;;;;;;;16.50;7.50;;;21.80;83.10;;;;;;4961933;28;20026;-86
2021/07/23 12:25:14;;;;;;;7.85;6.13;;;21.80;82.50;;;;;;4960047;28;20026;-84
2021/07/23 12:27:40;;;;;;;13.10;6.10;;;21.90;81.10;;;;;;4976118;28;20630;-84
2021/07/23 12:30:06;;;;;;;11.82;6.68;;;21.90;82.70;;;;;;4992206;28;20112;-84
2021/07/23 12:32:31;;;;;;;9.40;6.43;;;21.90;81.30;;;;;;4990668;28;20030;-85
2021/07/23 12:34:59;;;;;;;8.63;5.78;;;22.00;79.30;;;;;;4975007;28;20066;-85
2021/07/23 12:37:25;;;;;;;8.13;6.70;;;22.00;80.70;;;;;;4958025;28;20926;-84
2021/07/23 12:39:52;;;;;;;9.23;5.70;;;22.00;82.00;;;;;;4955336;28;20149;-84
2021/07/23 12:42:21;;;;;;;8.75;5.43;;;22.00;81.10;;;;;;4963515;28;20481;-84
2021/07/23 12:44:47;;;;;;;9.88;6.15;;;22.10;82.40;;;;;;4973495;28;20019;-84
2021/07/23 12:47:19;;;;;;;8.93;5.75;;;22.10;82.00;;;;;;4986781;28;20033;-87
2021/07/23 12:49:45;;;;;;;10.18;5.65;;;22.20;80.90;;;;;;4955982;28;20030;-84
2021/07/23 12:52:11;;;;;;;8.10;5.57;;;22.20;77.80;;;;;;4975840;28;20023;-85
2021/07/23 12:54:40;;;;;;;7.53;5.03;;;22.20;76.90;;;;;;4973436;28;20029;-84
2021/07/23 12:57:29;;;;;;;7.28;5.30;;;22.30;78.50;;;;;;4972310;28;20053;-87
2021/07/23 13:00:06;;;;;;;8.35;5.68;;;22.30;79.00;;;;;;4975900;28;20021;-85
2021/07/23 13:02:31;;;;;;;8.85;5.85;;;22.30;78.80;;;;;;4980360;28;20033;-84
2021/07/23 13:04:57;;;;;;;10.27;6.82;;;22.40;77.80;;;;;;4972560;28;20038;-85
2021/07/23 13:07:22;;;;;;;8.70;5.38;;;22.50;76.90;;;;;;4973676;28;20717;-85
2021/07/23 13:09:48;;;;;;;12.60;6.28;;;22.50;76.50;;;;;;4973987;28;20393;-86
2021/07/23 13:12:14;;;;;;;13.27;6.32;;;22.50;75.00;;;;;;4991029;28;20026;-85
2021/07/23 13:14:40;;;;;;;9.80;5.50;;;22.60;73.40;;;;;;4956731;28;20454;-86
2021/07/23 13:17:05;;;;;;;6.68;5.15;;;22.60;76.80;;;;;;4947360;28;20030;-84
2021/07/23 13:19:31;;;;;;;9.77;5.07;;;22.50;76.60;;;;;;4974754;28;20046;-85
2021/07/23 13:21:59;;;;;;;8.57;5.72;;;22.60;76.70;;;;;;4971664;28;20030;-87
2021/07/23 13:24:24;;;;;;;8.15;5.63;;;22.60;74.60;;;;;;4971640;28;20026;-87
2021/07/23 13:26:52;;;;;;;6.85;5.38;;;22.60;72.30;;;;;;4974338;28;20076;-84
2021/07/23 13:29:22;;;;;;;11.48;5.78;;;22.70;75.40;;;;;;4979030;28;20470;-85
2021/07/23 13:31:51;;;;;;;7.50;4.75;;;22.70;73.10;;;;;;4954242;28;20053;-86
2021/07/23 13:34:17;;;;;;;9.45;5.22;;;22.70;72.10;;;;;;4956430;28;20026;-84
2021/07/23 13:37:15;;;;;;;8.23;4.68;;;22.80;72.50;;;;;;4965598;28;20564;-85
2021/07/23 13:39:42;;;;;;;7.00;4.70;;;22.80;71.70;;;;;;4960470;28;20664;-85
2021/07/23 13:42:09;;;;;;;7.75;4.82;;;22.90;71.40;;;;;;4959390;28;20703;-85
2021/07/23 13:44:34;;;;;;;8.38;5.20;;;22.90;73.60;;;;;;4952291;28;20030;-85
2021/07/23 13:47:01;;;;;;;8.07;6.00;;;23.00;72.70;;;;;;4972011;28;20548;-84
2021/07/23 13:49:27;;;;;;;8.88;5.15;;;23.00;74.20;;;;;;4969793;28;20037;-87
2021/07/23 13:51:52;;;;;;;8.95;4.97;;;23.10;70.60;;;;;;4955056;28;20540;-84
2021/07/23 13:54:18;;;;;;;7.57;5.47;;;23.10;71.40;;;;;;4965421;28;20084;-84
2021/07/23 13:56:44;;;;;;;9.23;6.25;;;23.30;71.00;;;;;;4959339;28;20119;-85
2021/07/23 13:59:11;;;;;;;13.48;5.43;;;23.40;71.00;;;;;;4949967;28;20069;-87
2021/07/23 14:01:36;;;;;;;6.72;5.47;;;23.50;68.30;;;;;;4988085;28;20478;-86
2021/07/23 14:04:02;;;;;;;7.95;5.65;;;23.70;70.60;;;;;;4944946;28;20080;-85
2021/07/23 14:06:28;;;;;;;6.70;5.00;;;23.70;68.00;;;;;;4964840;28;20038;-85
2021/07/23 14:08:54;;;;;;;7.03;4.55;;;23.80;66.50;;;;;;4975175;28;20057;-84
2021/07/23 14:11:23;;;;;;;10.20;5.00;;;23.90;68.50;;;;;;4991127;28;20030;-85
2021/07/23 14:13:49;;;;;;;6.35;5.38;;;23.90;69.70;;;;;;4941854;28;20034;-86
2021/07/23 14:16:19;;;;;;;11.23;5.28;;;23.90;71.10;;;;;;4971342;28;20030;-85
2021/07/23 14:18:45;;;;;;;7.47;5.20;;;24.00;71.60;;;;;;4986177;28;20029;-85
2021/07/23 14:21:11;;;;;;;6.30;5.22;;;24.00;72.40;;;;;;4974259;28;20018;-86
2021/07/23 14:23:36;;;;;;;10.48;5.00;;;24.00;68.20;;;;;;4957815;28;20022;-84
2021/07/23 14:26:02;;;;;;;8.35;5.15;;;24.10;70.50;;;;;;4958649;28;20030;-84
2021/07/23 14:28:27;;;;;;;7.78;5.57;;;24.10;68.80;;;;;;4986737;28;20403;-83
2021/07/23 14:30:53;;;;;;;11.15;5.38;;;24.10;67.90;;;;;;4978220;28;20072;-86
2021/07/23 14:33:19;;;;;;;7.22;4.70;;;24.10;66.70;;;;;;4956335;28;20022;-85
2021/07/23 14:35:44;;;;;;;5.82;4.68;;;24.20;66.70;;;;;;4955298;28;20026;-84